Decoded Metar for PAPB (POINT BARROW in AK, USA) (IATA:N/A) | Meteo·Mobile Aviation Weather
aviador You're here:

PAPB Decoded Metar

POINT BARROW in AK, USA
Report Time2019-03-23 16:53:00
UTC Time2019-03-23 17:08:17
Flight Rules mvfr MVFR
Wind260° at 14 kt
W.Decomp.*RWY 29: 10.6 kt HW 9.2 kt LCW
W.Rank260° ranks 19
Current wind is above 260° avg. (12.0)
Visibility9999 m
Phenomena:N/A
Clouds:Few 011 Hf
Broken 019 Hf
Overcast 026 Hf
Expected CloudBase > 800 ft AGL from Temp-Dew spread
Ceiling1,900 ft
Temp00°C (ISA -15)
Dew Point-2°C (87% RH)
AAT-7.3°C
QNH999 hPa
Density Alt-1,135 ft
Elevation115 ft
Report Wrong Elevation
Raw Report
PAPB 231653Z AUTO 26014KT 9SM FEW011 BKN019 OVC026 00/M02 A2951
RMK AO2 SNB29E38 SLP981 P0000 T00001022 TSNO=

Extra information for PAPB:More info

Metar Taf Metar & Taf Last 4 Metars F.Rules Stats Wind Profile Meteogram Temp Stats Airport Information Weather charts Add Link Nearby VenuesMetar ALERT Operation Metar Decoded Social comments

AIRNAV info for PAPB